createdAt,value
2023-03-26T00:00:29.159Z,8.43
2023-03-26T00:02:32.234Z,6.40
2023-03-26T00:04:35.208Z,5.55
2023-03-26T00:06:40.707Z,5.15
2023-03-26T00:08:45.529Z,6.53
2023-03-26T00:10:48.407Z,4.77
2023-03-26T00:12:52.748Z,5.35
2023-03-26T00:14:55.591Z,7.55
2023-03-26T00:16:58.665Z,7.28
2023-03-26T00:19:02.690Z,6.30
2023-03-26T00:21:08.257Z,7.75
2023-03-26T00:25:14.448Z,5.60
2023-03-26T00:27:17.926Z,4.18
2023-03-26T00:29:28.278Z,5.80
2023-03-26T00:31:31.609Z,7.55
2023-03-26T00:33:38.813Z,6.03
2023-03-26T00:35:43.551Z,6.10
2023-03-26T00:37:46.679Z,5.40
2023-03-26T00:39:49.575Z,4.70
2023-03-26T00:41:54.766Z,4.47
2023-03-26T00:43:59.863Z,6.63
2023-03-26T00:46:04.699Z,5.15
2023-03-26T00:48:08.059Z,5.75
2023-03-26T00:50:15.812Z,4.10
2023-03-26T00:52:21.541Z,4.75
2023-03-26T00:54:24.612Z,3.50
2023-03-26T00:56:27.892Z,6.15
2023-03-26T00:58:31.255Z,3.90
2023-03-26T01:00:37.137Z,4.45
2023-03-26T01:02:41.758Z,5.50
2023-03-26T01:04:47.850Z,2.85
2023-03-26T01:06:51.201Z,5.53
2023-03-26T01:09:00.456Z,4.88
2023-03-26T01:11:07.951Z,5.00
2023-03-26T01:13:11.154Z,4.18
2023-03-26T01:15:14.231Z,8.57
2023-03-26T01:17:18.172Z,3.33
2023-03-26T01:19:30.278Z,4.28
2023-03-26T01:21:34.835Z,3.75
2023-03-26T01:23:43.331Z,5.27
2023-03-26T01:25:56.282Z,3.45
2023-03-26T01:27:59.510Z,3.25
2023-03-26T01:30:11.527Z,4.82
2023-03-26T01:32:33.249Z,4.95
2023-03-26T01:34:50.049Z,5.03
2023-03-26T01:37:00.450Z,4.75
2023-03-26T01:39:10.452Z,10.63
2023-03-26T01:41:21.969Z,4.60
2023-03-26T01:43:31.491Z,4.82
2023-03-26T01:45:38.648Z,6.30
2023-03-26T01:47:42.722Z,4.05
2023-03-26T01:49:45.769Z,9.63
2023-03-26T01:51:48.895Z,4.15
2023-03-26T01:53:53.382Z,4.90
2023-03-26T01:56:06.331Z,3.90
2023-03-26T01:58:18.253Z,4.70
2023-03-26T02:00:26.310Z,9.13
2023-03-26T02:02:39.139Z,3.80
2023-03-26T02:04:53.617Z,3.72
2023-03-26T02:07:06.052Z,6.00
2023-03-26T02:09:13.341Z,5.03
2023-03-26T02:11:16.738Z,3.92
2023-03-26T02:13:21.899Z,4.05
2023-03-26T02:15:25.052Z,5.82
2023-03-26T02:17:30.535Z,4.35
2023-03-26T02:21:36.092Z,4.03
2023-03-26T02:23:40.686Z,5.32
2023-03-26T02:25:44.166Z,3.53
2023-03-26T02:27:47.985Z,3.85
2023-03-26T02:29:52.945Z,3.17
2023-03-26T02:31:58.969Z,3.97
2023-03-26T02:34:02.296Z,5.65
2023-03-26T02:36:09.095Z,3.42
2023-03-26T02:38:15.057Z,4.55
2023-03-26T02:40:21.413Z,4.00
2023-03-26T02:42:25.330Z,5.22
2023-03-26T02:44:28.962Z,6.28
2023-03-26T02:46:36.209Z,5.88
2023-03-26T02:49:08.729Z,4.75
2023-03-26T02:51:11.689Z,6.70
2023-03-26T02:53:34.443Z,4.47
2023-03-26T02:56:01.445Z,6.18
2023-03-26T02:58:12.603Z,4.00
2023-03-26T03:00:17.467Z,4.33
2023-03-26T03:03:00.222Z,5.68
2023-03-26T03:05:08.284Z,6.05
2023-03-26T03:09:19.405Z,5.72
2023-03-26T03:11:41.725Z,4.10
2023-03-26T03:13:46.184Z,3.92
2023-03-26T03:15:53.524Z,3.20
2023-03-26T03:17:56.727Z,5.80
2023-03-26T03:20:03.528Z,5.40
2023-03-26T03:22:07.610Z,4.38
2023-03-26T03:24:14.129Z,4.72
2023-03-26T03:26:23.618Z,4.07
2023-03-26T03:28:28.495Z,5.13
2023-03-26T03:30:31.591Z,4.80
2023-03-26T03:32:58.680Z,3.80
2023-03-26T03:35:06.132Z,4.53
2023-03-26T03:37:09.291Z,4.68
2023-03-26T03:39:20.361Z,3.45
2023-03-26T03:41:23.450Z,2.65
2023-03-26T03:43:27.920Z,4.60
2023-03-26T03:45:39.292Z,4.25
2023-03-26T03:48:08.110Z,4.22
2023-03-26T03:50:22.022Z,5.65
2023-03-26T03:52:42.612Z,5.78
2023-03-26T03:54:45.613Z,2.83
2023-03-26T03:57:02.407Z,4.55
2023-03-26T03:59:09.332Z,4.60
2023-03-26T04:01:13.918Z,3.80
2023-03-26T04:03:33.442Z,5.63
2023-03-26T04:05:39.449Z,4.78
2023-03-26T04:07:42.530Z,4.30
2023-03-26T04:10:00.304Z,4.30
2023-03-26T04:12:08.379Z,5.53
2023-03-26T04:14:16.929Z,4.05
2023-03-26T04:16:32.552Z,6.90
2023-03-26T04:18:37.895Z,7.95
2023-03-26T04:20:51.169Z,11.10
2023-03-26T04:23:02.052Z,6.97
2023-03-26T04:25:05.629Z,5.18
2023-03-26T04:27:20.608Z,6.07
2023-03-26T04:29:28.210Z,6.88
2023-03-26T04:31:31.578Z,6.75
2023-03-26T04:33:36.258Z,6.43
2023-03-26T04:35:42.084Z,8.40
2023-03-26T04:37:49.010Z,7.22
2023-03-26T04:40:02.775Z,8.95
2023-03-26T04:42:14.730Z,3.47
2023-03-26T04:44:30.777Z,6.22
2023-03-26T04:46:38.072Z,7.55
2023-03-26T04:48:51.373Z,6.55
2023-03-26T04:50:54.733Z,4.90
2023-03-26T04:53:00.369Z,4.65
2023-03-26T04:55:39.810Z,4.45
2023-03-26T04:57:56.771Z,5.65
2023-03-26T05:00:20.759Z,5.38
2023-03-26T05:02:29.289Z,3.83
2023-03-26T05:04:35.026Z,2.05
2023-03-26T05:08:51.048Z,4.93
2023-03-26T05:11:11.931Z,3.78
2023-03-26T05:13:15.023Z,1.85
2023-03-26T05:15:24.327Z,5.00
2023-03-26T05:17:42.601Z,7.85
2023-03-26T05:19:53.505Z,3.78
2023-03-26T05:21:56.756Z,5.88
2023-03-26T05:24:02.412Z,4.32
2023-03-26T05:26:07.885Z,6.53
2023-03-26T05:28:11.885Z,6.03
2023-03-26T05:30:24.115Z,5.90
2023-03-26T05:32:31.845Z,5.13
2023-03-26T05:34:34.987Z,8.20
2023-03-26T05:36:39.529Z,4.30
2023-03-26T05:39:03.891Z,6.30
2023-03-26T05:41:38.913Z,5.80
2023-03-26T05:43:42.490Z,6.03
2023-03-26T05:45:52.805Z,2.88
2023-03-26T05:48:03.179Z,6.13
2023-03-26T05:50:07.917Z,6.05
2023-03-26T05:52:15.608Z,2.83
2023-03-26T05:54:48.970Z,2.45
2023-03-26T05:57:12.612Z,3.20
2023-03-26T05:59:33.933Z,5.30
2023-03-26T06:02:00.235Z,2.83
2023-03-26T06:04:13.876Z,6.13
2023-03-26T06:06:23.213Z,4.78
2023-03-26T06:08:32.534Z,5.32
2023-03-26T06:10:39.588Z,2.83
2023-03-26T06:12:42.797Z,6.00
2023-03-26T06:14:47.491Z,4.47
2023-03-26T06:16:58.846Z,6.32
2023-03-26T06:19:01.914Z,4.07
2023-03-26T06:21:23.245Z,5.70
2023-03-26T06:23:37.053Z,7.03
2023-03-26T06:25:49.286Z,7.18
2023-03-26T06:28:20.196Z,4.78
2023-03-26T06:31:00.057Z,5.53
2023-03-26T06:33:09.049Z,3.47
2023-03-26T06:35:19.230Z,6.20
2023-03-26T06:37:22.414Z,8.52
2023-03-26T06:39:30.283Z,5.70
2023-03-26T06:41:49.484Z,6.38
2023-03-26T06:44:18.533Z,5.90
2023-03-26T06:46:40.208Z,1.48
2023-03-26T06:49:01.605Z,4.82
2023-03-26T06:51:23.491Z,4.20
2023-03-26T06:53:44.889Z,6.30
2023-03-26T06:56:09.341Z,5.32
2023-03-26T06:58:32.180Z,4.72
2023-03-26T07:00:54.770Z,4.45
2023-03-26T07:03:17.612Z,4.80
2023-03-26T07:05:39.176Z,4.22
2023-03-26T07:07:57.010Z,7.50
2023-03-26T07:10:32.224Z,4.70
2023-03-26T07:12:57.691Z,5.32
2023-03-26T07:15:20.091Z,5.47
2023-03-26T07:17:41.708Z,5.22
2023-03-26T07:20:09.379Z,4.53
2023-03-26T07:22:19.362Z,5.00
2023-03-26T07:24:41.156Z,3.00
2023-03-26T07:26:55.774Z,3.80
2023-03-26T07:29:08.023Z,5.43
2023-03-26T07:31:36.422Z,4.30
2023-03-26T07:34:06.532Z,6.60
2023-03-26T07:36:26.049Z,4.18
2023-03-26T07:38:57.853Z,5.15
2023-03-26T07:41:30.855Z,9.05
2023-03-26T07:44:12.675Z,16.83
2023-03-26T07:46:32.369Z,10.43
2023-03-26T07:48:55.386Z,22.30
2023-03-26T07:51:19.731Z,14.15
2023-03-26T07:53:42.373Z,31.35
2023-03-26T07:56:03.072Z,11.80
2023-03-26T07:58:30.809Z,8.18
2023-03-26T08:00:57.458Z,7.07
2023-03-26T08:03:17.646Z,52.22
2023-03-26T08:05:28.888Z,16.77
2023-03-26T08:08:12.050Z,6.18
2023-03-26T08:10:26.891Z,24.08
2023-03-26T08:12:42.831Z,36.25
2023-03-26T08:14:53.377Z,16.98
2023-03-26T08:17:04.897Z,40.75
2023-03-26T08:19:25.778Z,37.53
2023-03-26T08:21:35.358Z,182.85
2023-03-26T08:23:50.813Z,54.10
2023-03-26T08:26:02.858Z,26.33
2023-03-26T08:28:20.047Z,16.33
2023-03-26T08:30:25.767Z,8.77
2023-03-26T08:32:29.314Z,9.27
2023-03-26T08:34:33.686Z,5.15
2023-03-26T08:36:37.291Z,7.18
2023-03-26T08:38:40.209Z,7.22
2023-03-26T08:41:20.302Z,6.38
2023-03-26T08:43:54.397Z,4.30
2023-03-26T08:46:30.640Z,7.63
2023-03-26T08:49:02.532Z,5.35
2023-03-26T08:51:52.933Z,7.75
2023-03-26T08:54:24.845Z,7.32
2023-03-26T08:56:38.871Z,5.45
2023-03-26T08:59:14.685Z,15.32
2023-03-26T09:01:56.789Z,10.07
2023-03-26T09:04:16.929Z,7.57
2023-03-26T09:06:42.366Z,8.05
2023-03-26T09:09:27.730Z,11.70
2023-03-26T09:11:59.137Z,6.97
2023-03-26T09:14:28.364Z,8.10
2023-03-26T09:17:07.857Z,6.88
2023-03-26T09:19:49.181Z,8.40
2023-03-26T09:22:27.008Z,24.67
2023-03-26T09:25:08.411Z,6.75
2023-03-26T09:27:41.769Z,5.97
2023-03-26T09:30:19.019Z,7.15
2023-03-26T09:32:41.449Z,8.93
2023-03-26T09:35:03.834Z,6.10
2023-03-26T09:37:18.361Z,5.75
2023-03-26T09:39:34.972Z,6.97
2023-03-26T09:41:44.214Z,7.53
2023-03-26T09:44:19.056Z,4.75
2023-03-26T09:46:35.259Z,4.28
2023-03-26T09:51:07.449Z,6.13
2023-03-26T09:53:26.930Z,4.40
2023-03-26T09:56:04.957Z,4.07
2023-03-26T09:58:32.750Z,6.07
2023-03-26T10:00:44.816Z,4.63
2023-03-26T10:03:08.734Z,4.57
2023-03-26T10:05:50.012Z,5.00
2023-03-26T10:08:32.085Z,3.72
2023-03-26T10:10:43.770Z,5.90
2023-03-26T10:12:52.767Z,6.07
2023-03-26T10:15:19.339Z,6.75
2023-03-26T10:17:37.867Z,6.30
2023-03-26T10:20:05.158Z,7.45
2023-03-26T10:22:23.249Z,4.47
2023-03-26T10:24:57.130Z,7.97
2023-03-26T10:27:17.476Z,4.65
2023-03-26T10:29:40.208Z,5.25
2023-03-26T10:31:46.689Z,8.63
2023-03-26T10:34:00.115Z,8.10
2023-03-26T10:36:27.190Z,10.90
2023-03-26T10:38:51.878Z,10.90
2023-03-26T10:41:07.089Z,31.95
2023-03-26T10:43:41.065Z,12.23
2023-03-26T10:46:11.031Z,10.98
2023-03-26T10:48:31.766Z,11.25
2023-03-26T10:50:52.637Z,9.63
2023-03-26T10:53:03.728Z,9.65
2023-03-26T10:55:14.333Z,8.13
2023-03-26T10:57:29.359Z,10.73
2023-03-26T10:59:32.408Z,11.38
2023-03-26T11:01:42.672Z,5.22
2023-03-26T11:03:55.116Z,7.97
2023-03-26T11:06:09.735Z,3.92
2023-03-26T11:08:31.889Z,7.82
2023-03-26T11:10:46.530Z,6.78
2023-03-26T11:12:55.761Z,6.82
2023-03-26T11:15:07.978Z,7.57
2023-03-26T11:17:40.021Z,4.35
2023-03-26T11:19:53.303Z,7.90
2023-03-26T11:22:02.123Z,7.30
2023-03-26T11:24:33.749Z,8.95
2023-03-26T11:26:51.878Z,4.75
2023-03-26T11:29:31.673Z,4.05
2023-03-26T11:31:50.230Z,4.82
2023-03-26T11:33:59.166Z,5.70
2023-03-26T11:36:08.819Z,6.75
2023-03-26T11:38:19.585Z,6.70
2023-03-26T11:40:28.174Z,4.03
2023-03-26T11:42:31.537Z,7.18
2023-03-26T11:44:39.292Z,4.80
2023-03-26T11:46:46.186Z,5.00
2023-03-26T11:48:54.085Z,10.45
2023-03-26T11:51:02.801Z,6.07
2023-03-26T11:53:13.007Z,3.88
2023-03-26T11:55:16.255Z,7.80
2023-03-26T11:57:26.677Z,8.40
2023-03-26T11:59:33.817Z,8.10
2023-03-26T12:01:53.640Z,6.07
2023-03-26T12:04:04.496Z,5.70
2023-03-26T12:06:27.291Z,4.35
2023-03-26T12:08:34.825Z,3.95
2023-03-26T12:10:43.327Z,6.97
2023-03-26T12:12:49.652Z,3.78
2023-03-26T12:14:53.050Z,8.77
2023-03-26T12:17:04.900Z,2.47
2023-03-26T12:19:21.608Z,4.55
2023-03-26T12:21:24.538Z,4.75
2023-03-26T12:23:53.248Z,6.68
2023-03-26T12:26:12.583Z,4.80
2023-03-26T12:28:20.607Z,11.25
2023-03-26T12:30:25.948Z,8.10
2023-03-26T12:32:45.257Z,6.07
2023-03-26T12:34:49.040Z,9.63
2023-03-26T12:36:55.638Z,13.80
2023-03-26T12:39:16.373Z,8.90
2023-03-26T12:44:42.290Z,10.80
2023-03-26T12:44:56.098Z,10.25
2023-03-26T12:48:01.349Z,7.43
2023-03-26T12:49:12.215Z,11.15
2023-03-26T12:51:26.795Z,9.02
2023-03-26T12:53:48.856Z,11.73
2023-03-26T12:56:00.736Z,12.60
2023-03-26T12:58:20.210Z,9.43
2023-03-26T13:00:47.285Z,10.68
2023-03-26T13:03:13.622Z,7.38
2023-03-26T13:07:51.437Z,5.85
2023-03-26T13:10:37.529Z,10.25
2023-03-26T13:12:46.431Z,8.23
2023-03-26T13:15:18.327Z,6.35
2023-03-26T13:17:29.642Z,8.70
2023-03-26T13:19:39.661Z,6.70
2023-03-26T13:21:53.911Z,6.50
2023-03-26T13:24:05.213Z,14.77
2023-03-26T13:26:19.341Z,9.60
2023-03-26T13:28:35.370Z,7.65
2023-03-26T13:30:43.663Z,7.68
2023-03-26T13:33:03.160Z,7.82
2023-03-26T13:35:24.645Z,8.07
2023-03-26T13:37:36.894Z,7.82
2023-03-26T13:39:52.620Z,8.65
2023-03-26T13:42:16.668Z,10.10
2023-03-26T13:44:32.620Z,10.18
2023-03-26T13:46:38.923Z,12.32
2023-03-26T13:48:51.210Z,13.88
2023-03-26T13:51:00.910Z,15.25
2023-03-26T13:53:06.970Z,11.02
2023-03-26T13:55:22.631Z,12.75
2023-03-26T13:57:32.103Z,11.93
2023-03-26T13:59:41.891Z,9.55
2023-03-26T14:01:51.326Z,10.77
2023-03-26T14:04:02.593Z,9.07
2023-03-26T14:06:11.784Z,12.45
2023-03-26T14:08:22.011Z,12.43
2023-03-26T14:10:31.015Z,14.70
2023-03-26T14:12:49.380Z,15.40
2023-03-26T14:14:58.687Z,20.27
2023-03-26T14:17:07.007Z,13.68
2023-03-26T14:19:32.407Z,12.95
2023-03-26T14:21:51.835Z,11.48
2023-03-26T14:24:19.557Z,8.77
2023-03-26T14:26:46.665Z,8.38
2023-03-26T14:29:25.765Z,8.65
2023-03-26T14:31:34.520Z,4.80
2023-03-26T14:34:00.244Z,13.95
2023-03-26T14:36:15.016Z,20.43
2023-03-26T14:38:57.248Z,43.88
2023-03-26T14:41:10.928Z,30.95
2023-03-26T14:43:30.587Z,33.10
2023-03-26T14:46:06.218Z,25.23
2023-03-26T14:48:54.613Z,17.35
2023-03-26T14:51:12.608Z,13.85
2023-03-26T14:53:26.651Z,11.50
2023-03-26T14:56:00.138Z,13.55
2023-03-26T14:58:34.371Z,13.25
2023-03-26T15:01:07.294Z,9.10
2023-03-26T15:03:52.852Z,11.98
2023-03-26T15:06:26.822Z,7.95
2023-03-26T15:09:33.830Z,11.27
2023-03-26T15:11:46.372Z,16.15
2023-03-26T15:14:30.243Z,14.27
2023-03-26T15:17:14.012Z,15.57
2023-03-26T15:19:53.741Z,8.65
2023-03-26T15:22:31.570Z,6.72
2023-03-26T15:25:10.769Z,9.73
2023-03-26T15:27:46.470Z,11.40
2023-03-26T15:30:27.077Z,10.98
2023-03-26T15:32:58.560Z,5.18
2023-03-26T15:35:31.111Z,6.65
2023-03-26T15:38:31.377Z,5.20
2023-03-26T15:40:45.971Z,4.32
2023-03-26T15:43:01.736Z,7.03
2023-03-26T15:45:30.725Z,8.15
2023-03-26T15:48:02.251Z,5.75
2023-03-26T15:50:19.448Z,7.95
2023-03-26T15:52:32.688Z,8.13
2023-03-26T15:54:50.129Z,8.93
2023-03-26T15:57:07.570Z,9.07
2023-03-26T15:59:27.089Z,10.55
2023-03-26T16:01:46.466Z,12.50
2023-03-26T16:03:58.768Z,10.90
2023-03-26T16:06:28.548Z,8.48
2023-03-26T16:08:40.219Z,11.20
2023-03-26T16:10:51.687Z,12.15
2023-03-26T16:13:15.182Z,9.25
2023-03-26T16:15:27.869Z,6.57
2023-03-26T16:18:12.657Z,9.35
2023-03-26T16:20:31.498Z,9.60
2023-03-26T16:22:45.326Z,8.98
2023-03-26T16:25:28.910Z,9.02
2023-03-26T16:27:35.568Z,6.60
2023-03-26T16:30:14.970Z,9.35
2023-03-26T16:32:31.675Z,7.13
2023-03-26T16:34:51.010Z,9.38
2023-03-26T16:36:54.616Z,11.32
2023-03-26T16:39:18.051Z,7.50
2023-03-26T16:41:25.048Z,7.90
2023-03-26T16:43:51.688Z,7.60
2023-03-26T16:48:15.009Z,9.77
2023-03-26T16:50:29.354Z,11.68
2023-03-26T16:52:43.149Z,102.82
2023-03-26T16:54:51.768Z,60.25
2023-03-26T16:57:02.203Z,299.52
2023-03-26T16:59:27.074Z,38.70
2023-03-26T17:01:45.669Z,140.27
2023-03-26T17:03:57.071Z,83.90
2023-03-26T17:06:06.573Z,103.03
2023-03-26T17:08:16.920Z,23.85
2023-03-26T17:10:31.271Z,18.73
2023-03-26T17:12:40.863Z,12.07
2023-03-26T17:14:59.845Z,21.45
2023-03-26T17:17:23.798Z,10.13
2023-03-26T17:19:33.819Z,10.95
2023-03-26T17:21:47.511Z,9.93
2023-03-26T17:24:02.086Z,13.40
2023-03-26T17:26:16.685Z,10.30
2023-03-26T17:28:35.654Z,7.80
2023-03-26T17:31:06.925Z,7.38
2023-03-26T17:33:21.846Z,5.82
2023-03-26T17:35:47.170Z,7.00
2023-03-26T17:37:50.765Z,11.90
2023-03-26T17:40:20.972Z,10.10
2023-03-26T17:42:27.785Z,8.18
2023-03-26T17:44:49.490Z,10.73
2023-03-26T17:46:58.239Z,15.93
2023-03-26T17:49:06.257Z,17.35
2023-03-26T17:51:27.905Z,18.23
2023-03-26T17:53:33.331Z,125.80
2023-03-26T17:55:39.120Z,65.80
2023-03-26T17:57:46.098Z,38.25
2023-03-26T17:59:51.529Z,111.75
2023-03-26T18:01:59.949Z,102.45
2023-03-26T18:04:04.809Z,148.68
2023-03-26T18:06:11.292Z,210.05
2023-03-26T18:08:32.721Z,163.25
2023-03-26T18:11:06.309Z,68.25
2023-03-26T18:13:23.733Z,29.90
2023-03-26T18:15:34.572Z,21.80
2023-03-26T18:17:46.320Z,30.95
2023-03-26T18:19:52.067Z,28.33
2023-03-26T18:21:58.270Z,20.63
2023-03-26T18:24:03.085Z,16.83
2023-03-26T18:26:16.170Z,20.92
2023-03-26T18:28:19.001Z,17.48
2023-03-26T18:30:23.851Z,22.38
2023-03-26T18:32:31.307Z,20.35
2023-03-26T18:34:40.368Z,24.02
2023-03-26T18:36:43.371Z,26.52
2023-03-26T18:38:47.086Z,103.25
2023-03-26T18:40:54.255Z,215.57
2023-03-26T18:42:59.646Z,43.92
2023-03-26T18:45:07.526Z,42.65
2023-03-26T18:47:12.573Z,31.23
2023-03-26T18:49:17.373Z,36.55
2023-03-26T18:51:23.471Z,18.45
2023-03-26T18:53:30.126Z,18.83
2023-03-26T18:55:39.751Z,17.35
2023-03-26T18:57:43.648Z,24.55
2023-03-26T18:59:50.646Z,50.42
2023-03-26T19:01:55.892Z,72.63
2023-03-26T19:04:00.237Z,135.30
2023-03-26T19:06:08.526Z,94.55
2023-03-26T19:08:13.573Z,533.05
2023-03-26T19:10:22.470Z,991.38
2023-03-26T19:12:31.807Z,702.80
2023-03-26T19:14:51.369Z,455.30
2023-03-26T19:16:58.054Z,41.30
2023-03-26T19:19:02.815Z,37.88
2023-03-26T19:21:06.014Z,29.27
2023-03-26T19:23:15.295Z,116.30
2023-03-26T19:25:22.147Z,468.15
2023-03-26T19:27:25.535Z,332.70
2023-03-26T19:29:31.921Z,387.13
2023-03-26T19:31:37.026Z,229.55
2023-03-26T19:33:42.446Z,263.20
2023-03-26T19:35:46.645Z,340.08
2023-03-26T19:37:51.607Z,254.63
2023-03-26T19:40:07.010Z,24.30
2023-03-26T19:42:14.855Z,13.48
2023-03-26T19:44:21.603Z,190.88
2023-03-26T19:46:25.995Z,204.30
2023-03-26T19:48:45.928Z,220.43
2023-03-26T19:51:05.085Z,227.55
2023-03-26T19:53:19.206Z,52.72
2023-03-26T19:55:27.472Z,22.58
2023-03-26T19:57:32.860Z,32.50
2023-03-26T19:59:35.853Z,87.45
2023-03-26T20:01:38.760Z,41.05
2023-03-26T20:03:43.272Z,30.83
2023-03-26T20:05:46.303Z,142.23
2023-03-26T20:07:50.539Z,107.22
2023-03-26T20:09:53.772Z,59.97
2023-03-26T20:11:58.373Z,37.78
2023-03-26T20:14:01.906Z,15.07
2023-03-26T20:16:10.977Z,12.77
2023-03-26T20:18:14.171Z,11.13
2023-03-26T20:20:18.017Z,9.40
2023-03-26T20:22:20.978Z,14.70
2023-03-26T20:24:26.306Z,17.90
2023-03-26T20:26:29.147Z,16.98
2023-03-26T20:28:42.382Z,23.52
2023-03-26T20:30:54.890Z,44.50
2023-03-26T20:33:11.793Z,28.85
2023-03-26T20:35:20.728Z,30.92
2023-03-26T20:37:39.347Z,31.20
2023-03-26T20:39:42.469Z,25.92
2023-03-26T20:41:47.926Z,24.50
2023-03-26T20:43:55.367Z,23.05
2023-03-26T20:45:58.929Z,23.88
2023-03-26T20:48:03.108Z,21.95
2023-03-26T20:50:07.089Z,18.83
2023-03-26T20:52:14.007Z,17.77
2023-03-26T20:54:19.304Z,22.60
2023-03-26T20:56:22.375Z,23.95
2023-03-26T20:58:31.318Z,23.33
2023-03-26T21:00:37.437Z,19.52
2023-03-26T21:02:42.018Z,24.75
2023-03-26T21:04:47.631Z,27.45
2023-03-26T21:06:53.238Z,19.83
2023-03-26T21:08:58.873Z,22.42
2023-03-26T21:11:03.393Z,22.15
2023-03-26T21:13:11.970Z,21.05
2023-03-26T21:15:23.147Z,22.25
2023-03-26T21:17:29.182Z,20.67
2023-03-26T21:19:33.326Z,23.75
2023-03-26T21:21:48.148Z,25.05
2023-03-26T21:23:59.552Z,20.77
2023-03-26T21:26:07.485Z,28.13
2023-03-26T21:28:39.832Z,20.83
2023-03-26T21:30:47.312Z,22.15
2023-03-26T21:32:52.360Z,23.48
2023-03-26T21:34:59.239Z,20.58
2023-03-26T21:37:03.150Z,25.67
2023-03-26T21:39:06.918Z,29.70
2023-03-26T21:41:26.450Z,31.58
2023-03-26T21:43:29.511Z,29.10
2023-03-26T21:45:33.493Z,29.92
2023-03-26T21:47:37.113Z,27.80
2023-03-26T21:49:42.350Z,23.38
2023-03-26T21:51:46.432Z,20.33
2023-03-26T21:53:49.912Z,19.35
2023-03-26T21:56:02.432Z,18.02
2023-03-26T21:58:17.066Z,20.98
2023-03-26T22:00:33.572Z,20.58
2023-03-26T22:02:59.978Z,16.50
2023-03-26T22:05:13.427Z,19.77
2023-03-26T22:07:19.677Z,19.15
2023-03-26T22:09:35.515Z,17.38
2023-03-26T22:11:39.175Z,23.17
2023-03-26T22:13:42.474Z,19.02
2023-03-26T22:15:46.532Z,17.30
2023-03-26T22:17:54.268Z,21.52
2023-03-26T22:19:57.354Z,16.17
2023-03-26T22:22:02.042Z,20.08
2023-03-26T22:24:07.398Z,19.00
2023-03-26T22:26:10.365Z,20.17
2023-03-26T22:28:14.079Z,16.73
2023-03-26T22:30:17.802Z,18.10
2023-03-26T22:32:20.677Z,14.57
2023-03-26T22:34:23.956Z,11.98
2023-03-26T22:36:27.965Z,18.30
2023-03-26T22:38:32.467Z,16.25
2023-03-26T22:40:35.476Z,24.67
2023-03-26T22:42:38.360Z,17.60
2023-03-26T22:44:41.581Z,13.60
2023-03-26T22:46:46.399Z,14.43
2023-03-26T22:48:49.700Z,20.35
2023-03-26T22:51:00.206Z,16.38
2023-03-26T22:53:03.094Z,15.13
2023-03-26T22:55:09.155Z,20.98
2023-03-26T22:57:12.376Z,11.88
2023-03-26T22:59:15.956Z,11.73
2023-03-26T23:01:22.105Z,13.45
2023-03-26T23:03:35.263Z,15.40
2023-03-26T23:05:38.996Z,10.98
2023-03-26T23:07:42.843Z,11.60
2023-03-26T23:09:46.074Z,11.80
2023-03-26T23:11:50.866Z,17.60
2023-03-26T23:13:53.756Z,11.90
2023-03-26T23:15:57.516Z,11.95
2023-03-26T23:18:00.611Z,14.80
2023-03-26T23:20:06.478Z,11.88
2023-03-26T23:22:09.366Z,13.80
2023-03-26T23:24:12.325Z,9.10
2023-03-26T23:26:15.836Z,10.65
2023-03-26T23:28:20.716Z,9.95
2023-03-26T23:30:25.328Z,11.13
2023-03-26T23:32:28.811Z,16.30
2023-03-26T23:34:32.401Z,11.43
2023-03-26T23:36:35.477Z,14.18
2023-03-26T23:38:44.263Z,13.13
2023-03-26T23:40:57.484Z,11.75
2023-03-26T23:43:01.001Z,19.67
2023-03-26T23:45:06.565Z,15.27
2023-03-26T23:49:15.202Z,13.60
2023-03-26T23:51:20.399Z,10.80
2023-03-26T23:53:25.196Z,11.88
2023-03-26T23:55:28.159Z,15.70
2023-03-26T23:57:31.114Z,17.27
2023-03-26T23:59:35.802Z,14.25
